createdAt,value
2016-09-22T00:00:15.475Z,82.68
2016-09-22T00:01:15.461Z,82.63
2016-09-22T00:02:15.473Z,82.72
2016-09-22T00:03:15.449Z,82.53
2016-09-22T00:04:15.426Z,82.63
2016-09-22T00:05:15.411Z,82.63
2016-09-22T00:06:15.402Z,82.72
2016-09-22T00:07:15.410Z,82.91
2016-09-22T00:08:15.397Z,83.01
2016-09-22T00:09:15.365Z,82.91
2016-09-22T00:10:15.339Z,82.72
2016-09-22T00:11:15.327Z,82.63
2016-09-22T00:12:15.319Z,83.01
2016-09-22T00:13:15.304Z,82.63
2016-09-22T00:14:15.311Z,83.1
2016-09-22T00:15:15.300Z,83.29
2016-09-22T00:16:15.299Z,83.1
2016-09-22T00:17:15.262Z,83.39
2016-09-22T00:18:15.241Z,83.2
2016-09-22T00:19:15.243Z,83.2
2016-09-22T00:20:15.237Z,83.1
2016-09-22T00:21:15.221Z,83.2
2016-09-22T00:22:15.223Z,83.82
2016-09-22T00:23:15.200Z,83.76
2016-09-22T00:24:15.174Z,83.76
2016-09-22T00:25:15.153Z,83.48
2016-09-22T00:26:15.149Z,83.44
2016-09-22T00:27:15.149Z,83.58
2016-09-22T00:28:15.114Z,83.48
2016-09-22T00:29:15.132Z,83.95
2016-09-22T00:30:15.088Z,83.86
2016-09-22T00:31:15.089Z,83.76
2016-09-22T00:32:15.094Z,84.23
2016-09-22T00:33:15.067Z,84.14
2016-09-22T00:34:15.037Z,84.05
2016-09-22T00:35:15.034Z,83.95
2016-09-22T00:36:15.024Z,84.14
2016-09-22T00:37:15.010Z,84.23
2016-09-22T00:38:14.984Z,84.33
2016-09-22T00:39:14.973Z,84.33
2016-09-22T00:40:14.991Z,84.42
2016-09-22T00:41:14.946Z,84.42
2016-09-22T00:42:14.946Z,84.81
2016-09-22T00:43:14.936Z,84.42
2016-09-22T00:44:14.930Z,84.71
2016-09-22T00:45:14.929Z,84.71
2016-09-22T00:46:14.907Z,84.71
2016-09-22T00:47:14.901Z,84.71
2016-09-22T00:48:14.871Z,84.52
2016-09-22T00:49:14.868Z,85.09
2016-09-22T00:50:14.851Z,84.9
2016-09-22T00:51:14.842Z,84.86
2016-09-22T00:52:14.808Z,85.14
2016-09-22T00:53:14.807Z,84.95
2016-09-22T00:54:14.802Z,84.67
2016-09-22T00:55:14.770Z,84.77
2016-09-22T00:56:14.776Z,84.95
2016-09-22T00:57:14.755Z,84.86
2016-09-22T00:58:14.742Z,84.86
2016-09-22T00:59:14.751Z,85.28
2016-09-22T01:00:14.711Z,85.28
2016-09-22T01:01:14.694Z,85.19
2016-09-22T01:02:14.678Z,85.57
2016-09-22T01:03:14.664Z,85.28
2016-09-22T01:04:14.685Z,85.28
2016-09-22T01:05:14.639Z,85.38
2016-09-22T01:06:14.627Z,85.47
2016-09-22T01:07:14.627Z,85.19
2016-09-22T01:08:14.626Z,85.19
2016-09-22T01:09:14.623Z,85.19
2016-09-22T01:10:14.585Z,85.05
2016-09-22T01:11:14.564Z,85.24
2016-09-22T01:12:14.571Z,85.99
2016-09-22T01:13:14.571Z,85.8
2016-09-22T01:14:14.555Z,85.9
2016-09-22T01:15:14.545Z,85.8
2016-09-22T01:16:14.531Z,85.52
2016-09-22T01:17:14.519Z,85.75
2016-09-22T01:18:14.505Z,85.52
2016-09-22T01:19:14.483Z,85.66
2016-09-22T01:20:14.449Z,86.04
2016-09-22T01:21:14.432Z,86.18
2016-09-22T01:22:14.422Z,85.8
2016-09-22T01:23:14.418Z,85.85
2016-09-22T01:24:14.396Z,86.22
2016-09-22T01:25:14.415Z,86.37
2016-09-22T01:26:14.406Z,86.32
2016-09-22T01:27:14.390Z,86.09
2016-09-22T01:28:14.364Z,86.47
2016-09-22T01:29:14.355Z,86.18
2016-09-22T01:30:14.318Z,86.18
2016-09-22T01:31:14.322Z,86.28
2016-09-22T01:32:14.304Z,86.37
2016-09-22T01:33:14.302Z,86.04
2016-09-22T01:34:14.279Z,86.41
2016-09-22T01:35:14.274Z,86.79
2016-09-22T01:36:14.241Z,86.04
2016-09-22T01:37:14.249Z,87.04
2016-09-22T01:38:14.248Z,86.79
2016-09-22T01:39:14.224Z,86.18
2016-09-22T01:40:14.191Z,86.37
2016-09-22T01:41:14.200Z,86.75
2016-09-22T01:42:14.175Z,86.47
2016-09-22T01:43:14.152Z,86.18
2016-09-22T01:44:14.171Z,86.47
2016-09-22T01:45:14.136Z,86.66
2016-09-22T01:46:14.146Z,86.47
2016-09-22T01:47:14.122Z,86.56
2016-09-22T01:48:14.109Z,86.56
2016-09-22T01:49:14.072Z,86.75
2016-09-22T01:50:14.083Z,86.94
2016-09-22T01:51:14.068Z,86.94
2016-09-22T01:52:14.069Z,87.13
2016-09-22T01:53:14.043Z,87.23
2016-09-22T01:54:14.031Z,86.94
2016-09-22T01:55:14.031Z,86.85
2016-09-22T01:56:14.006Z,86.85
2016-09-22T01:57:14.000Z,86.66
2016-09-22T01:58:14.055Z,86.85
2016-09-22T01:59:13.967Z,87.6
2016-09-22T02:00:13.952Z,87.51
2016-09-22T02:01:13.951Z,87.51
2016-09-22T02:02:13.939Z,87.51
2016-09-22T02:03:13.898Z,87.41
2016-09-22T02:04:13.878Z,87.32
2016-09-22T02:05:13.865Z,87.32
2016-09-22T02:06:13.863Z,87.32
2016-09-22T02:07:13.870Z,87.51
2016-09-22T02:08:13.836Z,87.32
2016-09-22T02:09:13.846Z,87.41
2016-09-22T02:10:13.804Z,87.7
2016-09-22T02:11:13.785Z,87.6
2016-09-22T02:12:13.795Z,87.79
2016-09-22T02:13:13.760Z,87.41
2016-09-22T02:14:13.746Z,87.79
2016-09-22T02:15:13.750Z,88.17
2016-09-22T02:16:13.743Z,88.17
2016-09-22T02:17:13.710Z,87.32
2016-09-22T02:18:13.728Z,87.79
2016-09-22T02:19:13.692Z,88.17
2016-09-22T02:20:13.670Z,87.98
2016-09-22T02:21:13.682Z,87.93
2016-09-22T02:22:13.664Z,87.84
2016-09-22T02:23:13.650Z,87.84
2016-09-22T02:24:13.639Z,87.93
2016-09-22T02:25:13.603Z,87.79
2016-09-22T02:26:13.601Z,87.79
2016-09-22T02:27:13.599Z,87.79
2016-09-22T02:28:13.575Z,88.07
2016-09-22T02:29:13.585Z,88.17
2016-09-22T02:30:13.557Z,88.26
2016-09-22T02:31:13.527Z,88.26
2016-09-22T02:32:13.543Z,88.26
2016-09-22T02:33:13.499Z,88.36
2016-09-22T02:34:13.509Z,87.98
2016-09-22T02:35:13.496Z,88.17
2016-09-22T02:36:13.460Z,88.26
2016-09-22T02:37:13.478Z,88.07
2016-09-22T02:38:13.467Z,87.88
2016-09-22T02:39:13.453Z,88.45
2016-09-22T02:40:13.420Z,88.64
2016-09-22T02:41:13.425Z,88.74
2016-09-22T02:42:13.415Z,88.64
2016-09-22T02:43:13.382Z,88.45
2016-09-22T02:44:13.389Z,88.45
2016-09-22T02:45:13.343Z,88.26
2016-09-22T02:46:13.362Z,88.83
2016-09-22T02:47:13.317Z,88.93
2016-09-22T02:48:13.334Z,88.55
2016-09-22T02:49:13.325Z,88.55
2016-09-22T02:50:13.312Z,88.55
2016-09-22T02:51:13.275Z,88.64
2016-09-22T02:52:13.274Z,88.74
2016-09-22T02:53:13.257Z,88.64
2016-09-22T02:54:13.246Z,88.93
2016-09-22T02:55:13.221Z,88.83
2016-09-22T02:56:13.231Z,89.12
2016-09-22T02:57:13.207Z,89.12
2016-09-22T02:58:13.193Z,89.02
2016-09-22T02:59:13.190Z,88.93
2016-09-22T03:00:13.176Z,88.74
2016-09-22T03:01:13.131Z,89.02
2016-09-22T03:02:13.116Z,89.02
2016-09-22T03:03:13.115Z,89.12
2016-09-22T03:04:13.101Z,89.02
2016-09-22T03:05:13.079Z,88.93
2016-09-22T03:06:13.076Z,88.93
2016-09-22T03:07:13.070Z,88.83
2016-09-22T03:08:13.071Z,88.83
2016-09-22T03:09:13.035Z,89.21
2016-09-22T03:10:13.021Z,88.93
2016-09-22T03:11:13.018Z,88.83
2016-09-22T03:12:13.004Z,89.12
2016-09-22T03:13:12.981Z,89.12
2016-09-22T03:14:12.977Z,89.12
2016-09-22T03:15:12.976Z,89.31
2016-09-22T03:16:12.963Z,89.4
2016-09-22T03:17:12.918Z,89.4
2016-09-22T03:18:12.901Z,89.31
2016-09-22T03:19:12.889Z,89.59
2016-09-22T03:20:12.877Z,89.59
2016-09-22T03:21:12.895Z,89.4
2016-09-22T03:22:12.861Z,89.31
2016-09-22T03:23:12.870Z,89.21
2016-09-22T03:24:12.823Z,89.31
2016-09-22T03:25:12.811Z,89.5
2016-09-22T03:26:12.806Z,89.5
2016-09-22T03:27:12.795Z,89.31
2016-09-22T03:28:12.768Z,89.31
2016-09-22T03:29:12.756Z,89.12
2016-09-22T03:30:12.748Z,89.69
2016-09-22T03:31:12.761Z,89.4
2016-09-22T03:32:12.738Z,89.59
2016-09-22T03:33:12.700Z,89.59
2016-09-22T03:34:12.711Z,89.5
2016-09-22T03:35:12.674Z,89.4
2016-09-22T03:36:12.994Z,89.4
2016-09-22T03:37:12.668Z,89.4
2016-09-22T03:38:12.658Z,89.5
2016-09-22T03:39:12.631Z,89.31
2016-09-22T03:40:12.615Z,89.4
2016-09-22T03:41:12.614Z,89.59
2016-09-22T03:42:12.614Z,89.78
2016-09-22T03:43:12.585Z,89.87
2016-09-22T03:44:12.574Z,89.69
2016-09-22T03:45:12.576Z,89.78
2016-09-22T03:46:12.545Z,89.69
2016-09-22T03:47:12.517Z,89.59
2016-09-22T03:48:12.518Z,89.59
2016-09-22T03:49:12.476Z,89.78
2016-09-22T03:50:12.489Z,89.69
2016-09-22T03:51:12.448Z,89.87
2016-09-22T03:52:12.479Z,89.69
2016-09-22T03:53:12.465Z,90.06
2016-09-22T03:54:12.437Z,89.78
2016-09-22T03:55:12.393Z,89.87
2016-09-22T03:56:12.418Z,90.16
2016-09-22T03:57:12.378Z,89.87
2016-09-22T03:58:12.367Z,90.34
2016-09-22T03:59:12.353Z,90.16
2016-09-22T04:00:12.340Z,89.97
2016-09-22T04:01:12.327Z,90.06
2016-09-22T04:02:12.311Z,89.59
2016-09-22T04:03:12.327Z,89.87
2016-09-22T04:04:12.310Z,90.06
2016-09-22T04:05:12.297Z,89.87
2016-09-22T04:06:12.262Z,90.44
2016-09-22T04:07:12.263Z,90.63
2016-09-22T04:08:12.254Z,90.53
2016-09-22T04:09:12.229Z,90.44
2016-09-22T04:10:12.226Z,90.34
2016-09-22T04:11:12.180Z,90.44
2016-09-22T04:12:12.200Z,90.44
2016-09-22T04:13:12.152Z,90.44
2016-09-22T04:14:12.142Z,90.16
2016-09-22T04:15:12.128Z,90.34
2016-09-22T04:16:12.125Z,90.34
2016-09-22T04:17:12.098Z,90.16
2016-09-22T04:18:12.085Z,90.16
2016-09-22T04:19:12.076Z,90.34
2016-09-22T04:20:12.066Z,90.44
2016-09-22T04:21:12.049Z,90.34
2016-09-22T04:22:12.038Z,90.53
2016-09-22T04:23:12.034Z,90.53
2016-09-22T04:24:12.010Z,90.72
2016-09-22T04:25:12.007Z,90.44
2016-09-22T04:26:12.002Z,90.72
2016-09-22T04:27:11.995Z,90.82
2016-09-22T04:28:11.954Z,90.53
2016-09-22T04:29:11.940Z,90.72
2016-09-22T04:30:11.932Z,90.53
2016-09-22T04:31:11.910Z,90.44
2016-09-22T04:32:11.889Z,90.72
2016-09-22T04:33:11.907Z,90.53
2016-09-22T04:34:11.882Z,90.44
2016-09-22T04:35:11.846Z,90.34
2016-09-22T04:36:11.832Z,90.91
2016-09-22T04:37:11.819Z,91.01
2016-09-22T04:38:11.815Z,90.82
2016-09-22T04:39:11.803Z,91.01
2016-09-22T04:40:11.787Z,90.72
2016-09-22T04:41:11.794Z,90.91
2016-09-22T04:42:11.771Z,90.91
2016-09-22T04:43:11.738Z,91.01
2016-09-22T04:44:11.743Z,91.01
2016-09-22T04:45:11.719Z,90.72
2016-09-22T04:46:11.693Z,91.01
2016-09-22T04:47:11.680Z,91.2
2016-09-22T04:48:11.677Z,91.58
2016-09-22T04:49:11.675Z,91.67
2016-09-22T04:50:11.641Z,91.1
2016-09-22T04:51:11.624Z,91.29
2016-09-22T04:52:11.645Z,91.29
2016-09-22T04:53:11.610Z,91.29
2016-09-22T04:54:11.605Z,91.39
2016-09-22T04:55:11.609Z,91.39
2016-09-22T04:56:11.566Z,91.2
2016-09-22T04:57:11.544Z,91.48
2016-09-22T04:58:11.529Z,91.58
2016-09-22T04:59:11.527Z,91.39
2016-09-22T05:00:11.500Z,91.39
2016-09-22T05:01:11.486Z,91.29
2016-09-22T05:02:11.508Z,91.39
2016-09-22T05:03:11.472Z,91.77
2016-09-22T05:04:11.448Z,91.86
2016-09-22T05:05:11.433Z,91.86
2016-09-22T05:06:11.453Z,91.77
2016-09-22T05:07:11.416Z,91.86
2016-09-22T05:08:11.414Z,91.67
2016-09-22T05:09:11.411Z,91.58
2016-09-22T05:10:11.373Z,91.67
2016-09-22T05:11:11.347Z,91.86
2016-09-22T05:12:11.369Z,91.77
2016-09-22T05:13:11.320Z,91.67
2016-09-22T05:14:11.331Z,91.86
2016-09-22T05:15:11.317Z,91.86
2016-09-22T05:16:11.283Z,91.77
2016-09-22T05:17:11.297Z,92.1
2016-09-22T05:18:11.287Z,92.19
2016-09-22T05:19:11.254Z,92.29
2016-09-22T05:20:11.229Z,92.1
2016-09-22T05:21:11.225Z,92
2016-09-22T05:22:11.202Z,92.1
2016-09-22T05:23:11.220Z,92
2016-09-22T05:24:11.176Z,92.19
2016-09-22T05:25:11.184Z,91.91
2016-09-22T05:26:11.183Z,92
2016-09-22T05:27:11.138Z,92.38
2016-09-22T05:28:11.144Z,91.81
2016-09-22T05:29:11.146Z,92.19
2016-09-22T05:30:11.098Z,91.76
2016-09-22T05:31:11.095Z,92.1
2016-09-22T05:32:11.104Z,91.67
2016-09-22T05:33:11.066Z,91.86
2016-09-22T05:34:11.057Z,91.76
2016-09-22T05:35:11.052Z,92.05
2016-09-22T05:36:11.019Z,91.95
2016-09-22T05:37:11.027Z,91.86
2016-09-22T05:38:10.993Z,92.14
2016-09-22T05:39:11.002Z,92.14
2016-09-22T05:40:10.988Z,92.33
2016-09-22T05:41:10.960Z,91.67
2016-09-22T05:42:10.941Z,91.67
2016-09-22T05:43:10.929Z,91.95
2016-09-22T05:44:10.927Z,92.24
2016-09-22T05:45:10.915Z,92.47
2016-09-22T05:46:10.913Z,92.09
2016-09-22T05:47:10.899Z,92.09
2016-09-22T05:48:10.899Z,92.28
2016-09-22T05:49:10.864Z,92.38
2016-09-22T05:50:10.877Z,91.95
2016-09-22T05:51:10.838Z,92.33
2016-09-22T05:52:10.824Z,92.19
2016-09-22T05:53:10.822Z,91.95
2016-09-22T05:54:10.798Z,91.86
2016-09-22T05:55:10.797Z,92.09
2016-09-22T05:56:10.793Z,92.09
2016-09-22T05:57:10.758Z,92.09
2016-09-22T05:58:10.735Z,92
2016-09-22T05:59:10.721Z,91.52
2016-09-22T06:00:10.735Z,91.81
2016-09-22T06:01:10.707Z,92
2016-09-22T06:02:10.679Z,91.9
2016-09-22T06:03:10.678Z,91.38
2016-09-22T06:04:10.688Z,91.48
2016-09-22T06:05:10.644Z,91.67
2016-09-22T06:06:10.663Z,91.29
2016-09-22T06:07:10.649Z,91.57
2016-09-22T06:08:10.624Z,91.19
2016-09-22T06:09:10.608Z,91.38
2016-09-22T06:10:10.921Z,91.48
2016-09-22T06:11:10.594Z,91.38
2016-09-22T06:12:10.546Z,91.38
2016-09-22T06:13:10.767Z,91.29
2016-09-22T06:14:10.518Z,91.57
2016-09-22T06:15:10.733Z,91.62
2016-09-22T06:16:10.699Z,91
2016-09-22T06:17:10.501Z,91.1
2016-09-22T06:18:10.476Z,90.91
2016-09-22T06:19:10.451Z,91
2016-09-22T06:20:10.458Z,91.05
2016-09-22T06:21:10.453Z,91.05
2016-09-22T06:22:10.441Z,90.95
2016-09-22T06:23:10.394Z,90.77
2016-09-22T06:24:10.413Z,91.05
2016-09-22T06:25:10.388Z,90.95
2016-09-22T06:26:10.384Z,91.14
2016-09-22T06:27:10.372Z,90.67
2016-09-22T06:28:10.325Z,90.58
2016-09-22T06:29:10.311Z,90.72
2016-09-22T06:30:10.317Z,90.67
2016-09-22T06:31:10.309Z,90.67
2016-09-22T06:32:10.289Z,90.72
2016-09-22T06:33:10.265Z,91
2016-09-22T06:34:10.273Z,90.72
2016-09-22T06:35:10.231Z,90.67
2016-09-22T06:36:10.245Z,90.53
2016-09-22T06:37:10.230Z,90.53
2016-09-22T06:38:10.215Z,90.24
2016-09-22T06:39:10.202Z,90.53
2016-09-22T06:40:10.155Z,90.34
2016-09-22T06:41:10.161Z,90.62
2016-09-22T06:42:10.153Z,90.15
2016-09-22T06:43:10.115Z,90.72
2016-09-22T06:44:10.102Z,90.81
2016-09-22T06:45:10.289Z,90.72
2016-09-22T06:46:10.281Z,90.43
2016-09-22T06:47:10.072Z,90.76
2016-09-22T06:48:10.081Z,90.62
2016-09-22T06:49:10.034Z,90.05
2016-09-22T06:50:10.029Z,90.05
2016-09-22T06:51:10.039Z,90.24
2016-09-22T06:52:10.292Z,90.01
2016-09-22T06:53:09.979Z,90.34
2016-09-22T06:54:09.970Z,89.96
2016-09-22T06:55:09.975Z,89.96
2016-09-22T06:56:09.960Z,90.15
2016-09-22T06:57:09.957Z,90.1
2016-09-22T06:58:09.934Z,90.29
2016-09-22T06:59:09.919Z,90.1
2016-09-22T07:00:09.896Z,90.19
2016-09-22T07:01:09.884Z,90.1
2016-09-22T07:02:09.879Z,90.38
2016-09-22T07:03:09.856Z,90.1
2016-09-22T07:04:09.861Z,90.1
2016-09-22T07:05:09.850Z,90.1
2016-09-22T07:06:09.817Z,89.81
2016-09-22T07:07:09.812Z,90
2016-09-22T07:08:09.801Z,89.91
2016-09-22T07:09:09.766Z,89.43
2016-09-22T07:10:09.752Z,89.43
2016-09-22T07:11:09.740Z,89.62
2016-09-22T07:12:09.724Z,89.53
2016-09-22T07:13:09.713Z,89.58
2016-09-22T07:14:09.731Z,89.58
2016-09-22T07:15:09.898Z,89.2
2016-09-22T07:16:09.896Z,89.15
2016-09-22T07:17:09.691Z,89.43
2016-09-22T07:18:09.669Z,89.06
2016-09-22T07:19:09.670Z,89.1
2016-09-22T07:20:09.625Z,89.39
2016-09-22T07:21:09.611Z,89.39
2016-09-22T07:22:09.629Z,89
2016-09-22T07:23:09.618Z,88.81
2016-09-22T07:24:09.584Z,88.91
2016-09-22T07:25:09.583Z,88.77
2016-09-22T07:26:09.570Z,88.77
2016-09-22T07:27:09.546Z,88.91
2016-09-22T07:28:09.524Z,89
2016-09-22T07:29:09.510Z,88.62
2016-09-22T07:30:09.509Z,88.72
2016-09-22T07:31:09.517Z,88.72
2016-09-22T07:32:09.507Z,88.95
2016-09-22T07:33:09.471Z,88.67
2016-09-22T07:34:09.461Z,88.48
2016-09-22T07:35:09.464Z,88.57
2016-09-22T07:36:09.457Z,88.2
2016-09-22T07:37:09.448Z,88.2
2016-09-22T07:38:09.402Z,88.29
2016-09-22T07:39:09.718Z,88.29
2016-09-22T07:40:09.400Z,88.05
2016-09-22T07:41:09.368Z,88.53
2016-09-22T07:42:09.356Z,88.15
2016-09-22T07:43:09.374Z,88.24
2016-09-22T07:44:09.334Z,87.86
2016-09-22T07:45:09.330Z,87.86
2016-09-22T07:46:09.337Z,88.15
2016-09-22T07:47:09.503Z,87.67
2016-09-22T07:48:09.320Z,87.86
2016-09-22T07:49:09.304Z,87.95
2016-09-22T07:50:09.285Z,88.01
2016-09-22T07:51:09.264Z,88.1
2016-09-22T07:52:09.262Z,87.34
2016-09-22T07:53:09.231Z,87.19
2016-09-22T07:54:09.229Z,87.24
2016-09-22T07:55:09.209Z,87.1
2016-09-22T07:56:09.208Z,87.29
2016-09-22T07:57:09.185Z,87.52
2016-09-22T07:58:09.196Z,87.14
2016-09-22T07:59:09.163Z,87.05
2016-09-22T08:00:09.150Z,86.86
2016-09-22T08:01:09.172Z,87.01
2016-09-22T08:02:09.159Z,86.63
2016-09-22T08:03:09.149Z,86.96
2016-09-22T08:04:09.118Z,86.49
2016-09-22T08:05:09.092Z,86.43
2016-09-22T08:06:09.083Z,86.34
2016-09-22T08:07:09.083Z,86.63
2016-09-22T08:08:09.093Z,86.49
2016-09-22T08:09:09.048Z,86.24
2016-09-22T08:10:09.059Z,86.53
2016-09-22T08:11:09.037Z,86.43
2016-09-22T08:12:09.047Z,86.63
2016-09-22T08:13:09.004Z,86.19
2016-09-22T08:14:09.018Z,86.1
2016-09-22T08:15:09.014Z,85.86
2016-09-22T08:16:09.002Z,86.15
2016-09-22T08:17:08.961Z,85.58
2016-09-22T08:18:08.959Z,85.77
2016-09-22T08:19:08.970Z,86.34
2016-09-22T08:20:08.937Z,85.53
2016-09-22T08:21:08.945Z,85.76
2016-09-22T08:22:08.936Z,85.47
2016-09-22T08:23:08.925Z,85.28
2016-09-22T08:24:08.914Z,85.24
2016-09-22T08:25:08.904Z,84.77
2016-09-22T08:26:08.862Z,85.62
2016-09-22T08:27:08.861Z,85.47
2016-09-22T08:28:08.838Z,85.19
2016-09-22T08:29:08.830Z,84.85
2016-09-22T08:30:08.841Z,84.81
2016-09-22T08:31:08.841Z,84.81
2016-09-22T08:32:08.797Z,84.62
2016-09-22T08:33:08.799Z,84.58
2016-09-22T08:34:08.811Z,84.29
2016-09-22T08:35:08.790Z,84.43
2016-09-22T08:36:08.781Z,84.14
2016-09-22T08:37:08.759Z,84.14
2016-09-22T08:38:08.761Z,83.67
2016-09-22T08:39:08.728Z,83.91
2016-09-22T08:40:08.718Z,83.95
2016-09-22T08:41:08.740Z,83.67
2016-09-22T08:42:08.728Z,83.86
2016-09-22T08:43:08.720Z,83.48
2016-09-22T08:44:08.707Z,83.48
2016-09-22T08:45:08.687Z,83.58
2016-09-22T08:46:08.658Z,83
2016-09-22T08:47:08.653Z,83.48
2016-09-22T08:48:08.646Z,83.34
2016-09-22T08:49:08.645Z,83.29
2016-09-22T08:50:08.627Z,83.19
2016-09-22T08:51:08.603Z,82.81
2016-09-22T08:52:08.594Z,83.1
2016-09-22T08:53:08.582Z,82.87
2016-09-22T08:54:08.607Z,83.19
2016-09-22T08:55:08.563Z,83.1
2016-09-22T08:56:08.555Z,82.19
2016-09-22T08:57:08.565Z,82.34
2016-09-22T08:58:08.544Z,82.62
2016-09-22T08:59:08.546Z,82.43
2016-09-22T09:00:08.522Z,82.19
2016-09-22T09:01:08.515Z,82.19
2016-09-22T09:02:08.494Z,81.81
2016-09-22T09:03:08.496Z,81.86
2016-09-22T09:04:08.496Z,82.09
2016-09-22T09:05:08.465Z,81.81
2016-09-22T09:06:08.485Z,81.9
2016-09-22T09:07:08.466Z,82.09
2016-09-22T09:08:08.435Z,81.82
2016-09-22T09:09:08.426Z,81.77
2016-09-22T09:10:08.413Z,81.33
2016-09-22T09:11:08.436Z,81.48
2016-09-22T09:12:08.404Z,81.67
2016-09-22T09:13:08.389Z,81.58
2016-09-22T09:14:08.376Z,81.43
2016-09-22T09:15:08.393Z,81.52
2016-09-22T09:16:08.392Z,81.24
2016-09-22T09:17:08.355Z,81.24
2016-09-22T09:18:08.345Z,80.76
2016-09-22T09:19:08.335Z,80.53
2016-09-22T09:20:08.314Z,80.95
2016-09-22T09:21:08.337Z,81.05
2016-09-22T09:22:08.316Z,80.86
2016-09-22T09:23:08.307Z,81.05
2016-09-22T09:24:08.308Z,80.66
2016-09-22T09:25:08.300Z,81.05
2016-09-22T09:26:08.277Z,80.72
2016-09-22T09:27:08.279Z,80.63
2016-09-22T09:28:08.270Z,80.82
2016-09-22T09:29:08.228Z,80.44
2016-09-22T09:30:08.251Z,80.66
2016-09-22T09:31:08.229Z,80.76
2016-09-22T09:32:08.210Z,80.86
2016-09-22T09:33:08.188Z,80.76
2016-09-22T09:34:08.212Z,80.66
2016-09-22T09:35:08.189Z,80.61
2016-09-22T09:36:08.188Z,80.71
2016-09-22T09:37:08.453Z,81.03
2016-09-22T09:38:08.157Z,80.18
2016-09-22T09:39:08.131Z,80.18
2016-09-22T09:40:08.120Z,80.65
2016-09-22T09:41:08.135Z,80.23
2016-09-22T09:42:08.102Z,80.36
2016-09-22T09:43:08.127Z,80.22
2016-09-22T09:44:08.117Z,80.6
2016-09-22T09:45:08.077Z,80.5
2016-09-22T09:46:08.088Z,80.41
2016-09-22T09:47:08.091Z,80.27
2016-09-22T09:48:08.062Z,80.46
2016-09-22T09:49:08.039Z,80.55
2016-09-22T09:50:08.056Z,80.02
2016-09-22T09:51:08.022Z,80.22
2016-09-22T09:52:08.048Z,80.16
2016-09-22T09:53:08.039Z,80.12
2016-09-22T09:54:08.012Z,80.02
2016-09-22T09:55:07.991Z,80.12
2016-09-22T09:56:08.015Z,80.12
2016-09-22T09:57:07.996Z,80.02
2016-09-22T09:58:07.967Z,79.83
2016-09-22T09:59:07.956Z,80.08
2016-09-22T10:00:07.959Z,79.83
2016-09-22T10:01:07.952Z,79.89
2016-09-22T10:02:07.966Z,79.74
2016-09-22T10:03:07.922Z,79.64
2016-09-22T10:04:07.950Z,79.89
2016-09-22T10:05:07.940Z,79.64
2016-09-22T10:06:07.935Z,79.89
2016-09-22T10:07:07.923Z,79.94
2016-09-22T10:08:07.904Z,79.85
2016-09-22T10:09:07.874Z,79.85
2016-09-22T10:10:07.878Z,79.75
2016-09-22T10:11:07.896Z,79.85
2016-09-22T10:12:07.872Z,79.19
2016-09-22T10:13:07.860Z,79.81
2016-09-22T10:14:07.852Z,79.94
2016-09-22T10:15:07.821Z,79.38
2016-09-22T10:16:07.822Z,79.22
2016-09-22T10:17:07.834Z,79.32
2016-09-22T10:18:07.814Z,79.41
2016-09-22T10:19:07.818Z,79.32
2016-09-22T10:20:07.795Z,79.32
2016-09-22T10:21:07.773Z,79.47
2016-09-22T10:22:07.780Z,79.19
2016-09-22T10:23:07.770Z,79.22
2016-09-22T10:24:07.753Z,79.32
2016-09-22T10:25:07.764Z,79.17
2016-09-22T10:26:07.746Z,78.94
2016-09-22T10:27:07.748Z,78.85
2016-09-22T10:28:07.731Z,79.13
2016-09-22T10:29:07.712Z,79.09
2016-09-22T10:30:07.712Z,78.96
2016-09-22T10:31:07.702Z,79.03
2016-09-22T10:32:07.702Z,79.03
2016-09-22T10:33:07.694Z,78.85
2016-09-22T10:34:07.673Z,78.94
2016-09-22T10:35:07.663Z,78.88
2016-09-22T10:36:07.644Z,78.64
2016-09-22T10:37:07.657Z,78.59
2016-09-22T10:38:07.639Z,78.88
2016-09-22T10:39:07.607Z,78.8
2016-09-22T10:40:07.612Z,78.42
2016-09-22T10:41:07.624Z,78.85
2016-09-22T10:42:07.582Z,78.71
2016-09-22T10:43:07.586Z,78.48
2016-09-22T10:44:07.586Z,78.67
2016-09-22T10:45:07.589Z,78.63
2016-09-22T10:46:07.566Z,78.38
2016-09-22T10:47:07.558Z,78.48
2016-09-22T10:48:07.562Z,78.06
2016-09-22T10:49:07.552Z,78.34
2016-09-22T10:50:07.533Z,78.44
2016-09-22T10:51:07.507Z,78.34
2016-09-22T10:52:07.524Z,78.16
2016-09-22T10:53:07.478Z,78.02
2016-09-22T10:54:07.493Z,78.02
2016-09-22T10:55:07.472Z,78.11
2016-09-22T10:56:07.451Z,78.08
2016-09-22T10:57:07.460Z,77.92
2016-09-22T10:58:07.443Z,77.83
2016-09-22T10:59:07.435Z,78.72
2016-09-22T11:00:07.438Z,78.77
2016-09-22T11:01:07.418Z,78.04
2016-09-22T11:02:07.401Z,78
2016-09-22T11:03:07.403Z,78.23
2016-09-22T11:04:07.403Z,78
2016-09-22T11:05:07.385Z,78.19
2016-09-22T11:06:07.374Z,78.29
2016-09-22T11:07:07.345Z,78.23
2016-09-22T11:08:07.335Z,78.37
2016-09-22T11:09:07.359Z,77.95
2016-09-22T11:10:07.314Z,78.14
2016-09-22T11:11:07.308Z,78.12
2016-09-22T11:12:07.309Z,78.41
2016-09-22T11:13:07.320Z,78.35
2016-09-22T11:14:07.304Z,78.3
2016-09-22T11:15:07.295Z,77.82
2016-09-22T11:16:07.292Z,77.82
2016-09-22T11:17:07.255Z,77.72
2016-09-22T11:18:07.245Z,77.82
2016-09-22T11:19:07.239Z,77.15
2016-09-22T11:20:07.251Z,77.34
2016-09-22T11:21:07.223Z,77.4
2016-09-22T11:22:07.247Z,77.07
2016-09-22T11:23:07.217Z,77.2
2016-09-22T11:24:07.198Z,77.15
2016-09-22T11:25:07.192Z,77.19
2016-09-22T11:26:07.195Z,77.44
2016-09-22T11:27:07.186Z,77.19
2016-09-22T11:28:07.202Z,77.47
2016-09-22T11:29:07.183Z,77.03
2016-09-22T11:30:07.164Z,77.21
2016-09-22T11:31:07.168Z,77.01
2016-09-22T11:32:07.160Z,76.92
2016-09-22T11:33:07.153Z,76.64
2016-09-22T11:34:07.160Z,76.77
2016-09-22T11:35:07.141Z,77.01
2016-09-22T11:36:07.127Z,76.64
2016-09-22T11:37:07.145Z,76.65
2016-09-22T11:38:07.134Z,76.65
2016-09-22T11:39:07.095Z,76.21
2016-09-22T11:40:07.102Z,76.4
2016-09-22T11:41:07.103Z,76.37
2016-09-22T11:42:07.104Z,76.31
2016-09-22T11:43:07.081Z,75.93
2016-09-22T11:44:07.087Z,76.27
2016-09-22T11:45:07.060Z,76.04
2016-09-22T11:46:07.065Z,75.81
2016-09-22T11:47:07.080Z,76.29
2016-09-22T11:48:07.053Z,75.91
2016-09-22T11:49:07.056Z,75.72
2016-09-22T11:50:07.031Z,75.43
2016-09-22T11:51:07.056Z,76.08
2016-09-22T11:52:07.025Z,75.64
2016-09-22T11:53:07.042Z,75.3
2016-09-22T11:54:07.036Z,75.59
2016-09-22T11:55:07.009Z,75.16
2016-09-22T11:56:06.990Z,74.84
2016-09-22T11:57:06.985Z,74.71
2016-09-22T11:58:07.012Z,74.84
2016-09-22T11:59:06.982Z,75.09
2016-09-22T12:00:06.988Z,74.67
2016-09-22T12:01:06.970Z,74.57
2016-09-22T12:02:06.955Z,74.38
2016-09-22T12:03:06.980Z,74.29
2016-09-22T12:04:06.944Z,74.06
2016-09-22T12:05:06.946Z,74.35
2016-09-22T12:06:06.961Z,74.63
2016-09-22T12:07:06.934Z,74.29
2016-09-22T12:08:06.947Z,74.06
2016-09-22T12:09:06.942Z,74.38
2016-09-22T12:10:06.900Z,74.46
2016-09-22T12:11:06.927Z,74.15
2016-09-22T12:12:06.912Z,73.94
2016-09-22T12:13:06.894Z,73.91
2016-09-22T12:14:06.898Z,73.68
2016-09-22T12:15:06.883Z,73.85
2016-09-22T12:16:06.896Z,74.27
2016-09-22T12:17:06.866Z,74.02
2016-09-22T12:18:06.860Z,74.09
2016-09-22T12:19:06.843Z,74.28
2016-09-22T12:20:06.869Z,73.71
2016-09-22T12:21:06.851Z,73.54
2016-09-22T12:22:06.856Z,73.44
2016-09-22T12:23:06.831Z,73.69
2016-09-22T12:24:06.817Z,73.6
2016-09-22T12:25:06.838Z,73.41
2016-09-22T12:26:06.799Z,73.37
2016-09-22T12:27:06.805Z,73.56
2016-09-22T12:28:06.794Z,73.32
2016-09-22T12:29:06.812Z,73.5
2016-09-22T12:30:06.788Z,73.69
2016-09-22T12:31:06.807Z,73.28
2016-09-22T12:32:06.786Z,73.08
2016-09-22T12:33:06.783Z,73.62
2016-09-22T12:34:06.753Z,73.52
2016-09-22T12:35:06.749Z,73.72
2016-09-22T12:36:06.758Z,73.3
2016-09-22T12:37:06.763Z,73.62
2016-09-22T12:38:06.739Z,73.66
2016-09-22T12:39:06.751Z,73.56
2016-09-22T12:40:06.725Z,73.56
2016-09-22T12:41:06.739Z,73.5
2016-09-22T12:42:06.724Z,73.54
2016-09-22T12:43:06.705Z,73.54
2016-09-22T12:44:06.750Z,73.48
2016-09-22T12:45:06.706Z,73.6
2016-09-22T12:46:06.676Z,73.28
2016-09-22T12:47:06.669Z,73.62
2016-09-22T12:48:06.673Z,73.72
2016-09-22T12:49:06.670Z,73.62
2016-09-22T12:50:06.673Z,73.93
2016-09-22T12:51:06.645Z,73.68
2016-09-22T12:52:06.661Z,74.29
2016-09-22T12:53:06.666Z,74.37
2016-09-22T12:54:06.632Z,74.3
2016-09-22T12:55:06.652Z,74.63
2016-09-22T12:56:06.664Z,74.57